createdAt,value
2019-01-18T00:16:51.170Z,990.81
2019-01-18T00:45:27.905Z,991.2
2019-01-18T01:14:06.750Z,991.48
2019-01-18T01:42:46.801Z,991.94
2019-01-18T02:11:24.354Z,992.31
2019-01-18T02:40:01.044Z,992.81
2019-01-18T03:08:37.932Z,993.26
2019-01-18T03:37:12.039Z,993.82
2019-01-18T04:05:52.385Z,994.29
2019-01-18T04:34:29.211Z,994.88
2019-01-18T05:03:04.729Z,995.44
2019-01-18T05:31:38.435Z,996.43
2019-01-18T06:00:15.470Z,997.02
2019-01-18T06:28:51.276Z,997.57
2019-01-18T06:57:26.048Z,998.33
2019-01-18T07:26:01.301Z,999.09
2019-01-18T07:54:37.807Z,999.67
2019-01-18T08:23:21.792Z,1000.14
2019-01-18T08:51:57.546Z,1000.63
2019-01-18T09:20:36.355Z,1001.03
2019-01-18T09:49:16.857Z,1001.39
2019-01-18T10:18:01.188Z,1001.57
2019-01-18T10:46:27.721Z,1001.58
2019-01-18T11:15:05.855Z,1001.61
2019-01-18T11:43:40.666Z,1001.68
2019-01-18T12:12:21.170Z,1001.67
2019-01-18T12:40:55.617Z,1001.62
2019-01-18T13:09:34.335Z,1001.63
2019-01-18T13:38:12.691Z,1001.55
2019-01-18T14:06:49.032Z,1001.77
2019-01-18T14:35:25.177Z,1001.92
2019-01-18T15:04:02.136Z,1002.09
2019-01-18T15:32:37.917Z,1002.21
2019-01-18T16:01:07.847Z,1002.41
2019-01-18T16:29:42.346Z,1002.67
2019-01-18T16:58:25.174Z,1002.76
2019-01-18T17:26:33.796Z,1002.8
2019-01-18T17:55:09.033Z,1002.83
2019-01-18T18:23:38.097Z,1003.03
2019-01-18T18:52:10.986Z,1003.16
2019-01-18T19:20:49.096Z,1003.16
2019-01-18T19:49:25.430Z,1003.15
2019-01-18T20:18:01.985Z,1003.34
2019-01-18T20:46:41.043Z,1003.37
2019-01-18T21:14:51.297Z,1003.43
2019-01-18T21:43:24.007Z,1003.43
2019-01-18T22:12:01.386Z,1003.59
2019-01-18T22:40:36.660Z,1003.57
2019-01-18T23:09:13.628Z,1003.64
2019-01-18T23:37:50.780Z,1003.44
